Time;durP1;ratioP1;P1;durP2;ratioP2;P2;SDS_P1;SDS_P2;PMS_P1;PMS_P2;Temp;Humidity;BMP_temperature;BMP_pressure;BME280_temperature;BME280_humidity;BME280_pressure;Samples;Min_cycle;Max_cycle;Signal;HPM_P1;HPM_P2
2023/01/18 00:01:36;;;;;;;7.25;5.05;;;2.00;99.90;;;;;;5063106;28;20017;-55
2023/01/18 00:04:01;;;;;;;6.30;4.20;;;2.00;99.90;;;;;;5050188;28;20033;-58
2023/01/18 00:06:27;;;;;;;5.53;4.40;;;1.90;99.90;;;;;;5052294;28;20044;-56
2023/01/18 00:08:53;;;;;;;6.55;4.82;;;1.90;99.90;;;;;;5051944;28;20036;-56
2023/01/18 00:11:19;;;;;;;9.60;4.40;;;1.90;99.90;;;;;;5051709;28;20047;-58
2023/01/18 00:13:45;;;;;;;4.72;3.83;;;1.90;99.90;;;;;;5051210;28;20477;-56
2023/01/18 00:16:14;;;;;;;9.25;6.45;;;1.90;99.90;;;;;;5052036;28;20017;-58
2023/01/18 00:18:40;;;;;;;5.43;4.22;;;2.00;99.90;;;;;;5052281;28;20067;-58
2023/01/18 00:21:08;;;;;;;7.93;4.97;;;2.00;99.90;;;;;;5051845;28;20071;-53
2023/01/18 00:23:34;;;;;;;8.57;4.10;;;2.00;99.90;;;;;;5051233;28;20029;-56
2023/01/18 00:26:05;;;;;;;8.25;4.72;;;1.90;99.90;;;;;;5051693;28;20032;-55
2023/01/18 00:28:31;;;;;;;7.07;3.80;;;1.90;99.90;;;;;;5052146;28;20104;-53
2023/01/18 00:30:57;;;;;;;4.78;3.17;;;1.90;99.90;;;;;;5050543;28;20031;-56
2023/01/18 00:33:22;;;;;;;7.35;3.85;;;1.90;99.90;;;;;;5051221;28;20021;-55
2023/01/18 00:35:56;;;;;;;5.97;3.33;;;1.90;99.90;;;;;;5051936;28;20113;-53
2023/01/18 00:38:21;;;;;;;51.05;26.55;;;1.90;99.90;;;;;;5052082;28;20108;-55
2023/01/18 00:40:46;;;;;;;114.35;58.22;;;2.00;99.90;;;;;;5051794;28;20156;-51
2023/01/18 00:45:56;;;;;;;4.90;3.67;;;2.00;99.90;;;;;;5051713;28;20032;-54
2023/01/18 00:48:21;;;;;;;7.43;3.40;;;2.00;99.90;;;;;;5051697;28;20476;-53
2023/01/18 00:50:47;;;;;;;8.15;3.60;;;2.00;99.90;;;;;;5051816;28;20024;-53
2023/01/18 00:53:12;;;;;;;3.22;2.92;;;2.00;99.90;;;;;;5050944;28;20030;-53
2023/01/18 00:55:38;;;;;;;8.07;4.43;;;2.00;99.90;;;;;;5051629;28;20024;-56
2023/01/18 00:58:03;;;;;;;8.32;4.07;;;2.00;99.90;;;;;;5051771;28;20036;-52
2023/01/18 01:00:29;;;;;;;4.63;3.38;;;2.00;99.90;;;;;;5051322;28;20029;-53
2023/01/18 01:02:55;;;;;;;4.90;3.88;;;2.00;99.90;;;;;;5050830;28;20029;-54
2023/01/18 01:08:27;;;;;;;6.15;3.35;;;2.00;99.90;;;;;;5051601;28;20579;-52
2023/01/18 01:11:10;;;;;;;4.70;3.35;;;1.90;99.90;;;;;;5051187;28;20040;-49
2023/01/18 01:27:18;;;;;;;3.53;2.80;;;1.90;99.90;;;;;;5055201;28;20059;-55
2023/01/18 01:29:44;;;;;;;4.80;3.30;;;1.90;99.90;;;;;;5055328;28;20025;-53
2023/01/18 01:32:09;;;;;;;9.63;3.90;;;1.90;99.90;;;;;;5054321;28;20021;-52
2023/01/18 01:34:35;;;;;;;4.68;3.55;;;2.00;99.90;;;;;;5055452;28;20100;-55
2023/01/18 01:37:01;;;;;;;4.22;3.15;;;2.00;99.90;;;;;;5055239;28;20028;-55
2023/01/18 01:39:26;;;;;;;6.07;3.40;;;1.90;99.90;;;;;;5055287;28;20408;-55
2023/01/18 01:41:52;;;;;;;3.67;3.38;;;1.90;99.90;;;;;;5054518;28;20021;-52
2023/01/18 01:44:26;;;;;;;5.93;3.33;;;1.90;99.90;;;;;;5055044;28;20500;-54
2023/01/18 01:47:03;;;;;;;6.78;3.95;;;1.90;99.90;;;;;;5054996;28;20398;-54
2023/01/18 01:49:33;;;;;;;4.53;3.47;;;1.90;99.90;;;;;;5053699;28;20029;-56
2023/01/18 01:52:12;;;;;;;6.40;3.13;;;1.90;99.90;;;;;;5054182;28;20021;-50
2023/01/18 01:54:48;;;;;;;4.80;3.58;;;2.00;99.90;;;;;;5054893;28;20017;-52
2023/01/18 01:57:31;;;;;;;3.42;3.13;;;1.90;99.90;;;;;;5054617;28;20036;-52
2023/01/18 02:00:00;;;;;;;4.25;3.13;;;2.00;99.90;;;;;;5054858;28;20111;-53
2023/01/18 02:02:28;;;;;;;3.17;2.80;;;2.00;99.90;;;;;;5053819;28;20025;-54
2023/01/18 02:04:54;;;;;;;7.60;3.65;;;2.10;99.90;;;;;;5054748;28;20025;-52
2023/01/18 02:07:21;;;;;;;3.88;3.10;;;2.10;99.90;;;;;;5054536;28;20040;-51
2023/01/18 02:09:47;;;;;;;8.60;3.80;;;2.10;99.90;;;;;;5054400;28;20021;-56
2023/01/18 02:12:13;;;;;;;7.10;6.03;;;2.20;99.90;;;;;;5052615;28;20017;-52
2023/01/18 02:14:39;;;;;;;5.03;2.90;;;2.10;99.90;;;;;;5054615;28;20017;-52
2023/01/18 02:17:15;;;;;;;6.22;3.50;;;2.20;99.90;;;;;;5054335;28;20027;-52
2023/01/18 02:20:05;;;;;;;6.18;3.15;;;2.20;99.90;;;;;;5054334;28;20033;-52
2023/01/18 02:22:46;;;;;;;3.15;2.85;;;2.20;99.90;;;;;;5053569;28;20017;-51
2023/01/18 02:25:43;;;;;;;4.43;3.25;;;2.20;99.90;;;;;;5054623;28;20025;-54
2023/01/18 02:28:23;;;;;;;4.25;3.40;;;2.20;99.90;;;;;;5054186;28;20025;-55
2023/01/18 02:30:55;;;;;;;8.10;3.45;;;2.20;99.90;;;;;;5054165;28;20101;-54
2023/01/18 02:33:55;;;;;;;3.95;3.58;;;2.30;99.90;;;;;;5053411;28;20112;-52
2023/01/18 02:36:30;;;;;;;6.72;3.45;;;2.30;99.90;;;;;;5051242;28;20528;-51
2023/01/18 02:39:22;;;;;;;5.93;3.58;;;2.30;99.90;;;;;;5054278;28;20515;-54
2023/01/18 02:47:30;;;;;;;3.40;2.92;;;2.40;99.90;;;;;;5054080;28;20032;-53
2023/01/18 02:49:56;;;;;;;3.80;2.95;;;2.40;99.90;;;;;;5054074;28;20045;-53
2023/01/18 02:52:41;;;;;;;3.42;3.13;;;2.40;99.90;;;;;;5052922;28;20443;-52
2023/01/18 02:55:12;;;;;;;4.40;3.42;;;2.40;99.90;;;;;;5053930;28;20507;-55
2023/01/18 02:57:38;;;;;;;6.80;3.63;;;2.50;99.90;;;;;;5053784;28;20029;-52
2023/01/18 03:00:07;;;;;;;10.90;3.78;;;2.50;99.90;;;;;;5053780;28;20075;-52
2023/01/18 03:02:34;;;;;;;6.90;3.45;;;2.50;99.90;;;;;;5052898;28;20055;-49
2023/01/18 03:05:00;;;;;;;4.53;3.38;;;2.50;99.90;;;;;;5053909;28;20024;-50
2023/01/18 03:07:29;;;;;;;6.50;4.32;;;2.50;99.90;;;;;;5052190;28;20025;-51
2023/01/18 03:09:56;;;;;;;3.70;3.28;;;2.40;99.90;;;;;;5052654;28;20032;-53
2023/01/18 03:12:53;;;;;;;4.82;3.47;;;2.50;99.90;;;;;;5051319;28;20028;-55
2023/01/18 03:15:19;;;;;;;5.18;3.80;;;2.50;99.90;;;;;;5053538;28;20037;-52
2023/01/18 03:17:51;;;;;;;4.07;3.67;;;2.50;99.90;;;;;;5053903;28;20100;-52
2023/01/18 03:20:24;;;;;;;7.18;3.92;;;2.50;99.90;;;;;;5053776;28;20058;-56
2023/01/18 03:25:42;;;;;;;5.20;3.45;;;2.50;99.90;;;;;;5053571;28;20032;-55
2023/01/18 03:33:46;;;;;;;;;;;2.60;99.90;;;;;;5053361;28;20044;-57
2023/01/18 03:36:19;;;;;;;4.03;3.65;;;2.60;99.90;;;;;;5053285;28;19956;-56
2023/01/18 03:38:49;;;;;;;6.90;3.60;;;2.50;99.90;;;;;;5052816;28;20051;-55
2023/01/18 03:41:15;;;;;;;4.82;3.60;;;2.50;99.90;;;;;;5051621;28;20032;-54
2023/01/18 03:43:42;;;;;;;8.95;4.72;;;2.40;99.90;;;;;;5052080;28;20033;-57
2023/01/18 03:46:08;;;;;;;6.55;4.32;;;2.40;99.90;;;;;;5052003;28;20112;-55
2023/01/18 03:48:35;;;;;;;6.00;3.50;;;2.40;99.90;;;;;;5052530;28;20100;-55
2023/01/18 03:51:27;;;;;;;6.53;3.92;;;2.40;99.90;;;;;;5053029;28;20017;-55
2023/01/18 03:54:14;;;;;;;4.53;4.05;;;2.40;99.90;;;;;;5051988;28;20083;-53
2023/01/18 03:56:48;;;;;;;7.68;3.80;;;2.40;99.90;;;;;;5052627;28;20031;-51
2023/01/18 03:59:13;;;;;;;6.75;3.67;;;2.40;99.90;;;;;;5052450;28;20117;-54
2023/01/18 04:01:40;;;;;;;5.63;3.53;;;2.40;99.90;;;;;;5052492;28;20108;-54
2023/01/18 04:04:05;;;;;;;4.25;3.55;;;2.40;99.90;;;;;;5051473;28;20021;-52
2023/01/18 04:06:32;;;;;;;5.13;3.75;;;2.40;99.90;;;;;;5052551;28;20025;-54
2023/01/18 04:08:58;;;;;;;5.45;3.70;;;2.40;99.90;;;;;;5052278;28;20078;-56
2023/01/18 04:11:23;;;;;;;6.47;3.83;;;2.40;99.90;;;;;;5050826;28;20029;-54
2023/01/18 04:13:49;;;;;;;6.15;4.50;;;2.40;99.90;;;;;;5051491;28;20029;-56
2023/01/18 04:16:15;;;;;;;6.97;4.28;;;2.40;99.90;;;;;;5052291;28;20029;-53
2023/01/18 04:18:40;;;;;;;5.32;4.10;;;2.40;99.90;;;;;;5050997;28;20052;-53
2023/01/18 04:21:06;;;;;;;4.43;3.70;;;2.40;99.90;;;;;;5052071;28;20025;-57
2023/01/18 04:23:31;;;;;;;4.28;3.40;;;2.40;99.90;;;;;;5051404;28;20114;-55
2023/01/18 04:25:57;;;;;;;8.30;3.72;;;2.30;99.90;;;;;;5051938;28;20035;-53
2023/01/18 04:28:26;;;;;;;9.63;5.07;;;2.30;99.90;;;;;;5052045;28;20029;-57
2023/01/18 04:30:53;;;;;;;7.68;4.53;;;2.30;99.90;;;;;;5052125;28;20029;-53
2023/01/18 04:33:19;;;;;;;6.35;4.05;;;2.30;99.90;;;;;;5051747;28;20036;-55
2023/01/18 04:35:45;;;;;;;4.82;3.83;;;2.30;99.90;;;;;;5052184;28;20021;-55
2023/01/18 04:38:11;;;;;;;6.97;4.47;;;2.30;99.90;;;;;;5051600;28;20082;-57
2023/01/18 04:40:36;;;;;;;6.28;4.32;;;2.30;99.90;;;;;;5051905;28;20053;-55
2023/01/18 04:43:03;;;;;;;5.22;3.85;;;2.30;99.90;;;;;;5050193;28;20552;-53
2023/01/18 04:45:28;;;;;;;4.57;3.08;;;2.20;99.90;;;;;;5051615;28;20052;-55
2023/01/18 04:47:54;;;;;;;5.60;4.18;;;2.20;99.90;;;;;;5051630;28;20064;-52
2023/01/18 04:50:19;;;;;;;5.85;3.50;;;2.20;99.90;;;;;;5051591;28;20079;-56
2023/01/18 04:52:45;;;;;;;7.00;3.58;;;2.20;99.90;;;;;;5051075;28;20032;-56
2023/01/18 04:55:14;;;;;;;6.60;3.38;;;2.20;99.90;;;;;;5051269;28;20484;-57
2023/01/18 04:57:42;;;;;;;7.30;3.45;;;2.20;99.90;;;;;;5050219;28;20491;-53
2023/01/18 05:00:09;;;;;;;7.20;3.67;;;2.20;99.90;;;;;;5051720;28;20408;-54
2023/01/18 05:02:35;;;;;;;6.72;3.47;;;2.30;99.90;;;;;;5049713;28;20074;-55
2023/01/18 05:05:00;;;;;;;6.82;3.75;;;2.20;99.90;;;;;;5051655;28;20029;-57
2023/01/18 05:07:29;;;;;;;6.05;3.72;;;2.30;99.90;;;;;;5051272;28;20025;-57
2023/01/18 05:09:55;;;;;;;6.13;3.88;;;2.30;99.90;;;;;;5051257;28;20036;-57
2023/01/18 05:12:21;;;;;;;6.63;3.72;;;2.30;99.90;;;;;;5049048;28;20387;-52
2023/01/18 05:14:47;;;;;;;7.75;3.83;;;2.20;99.90;;;;;;5051550;28;20017;-58
2023/01/18 05:17:12;;;;;;;10.10;4.90;;;2.20;99.90;;;;;;5051102;28;20024;-53
2023/01/18 05:19:39;;;;;;;9.18;4.00;;;2.20;99.90;;;;;;5051231;28;20159;-54
2023/01/18 05:22:05;;;;;;;6.13;4.05;;;2.20;99.90;;;;;;5050953;28;20548;-54
2023/01/18 05:24:31;;;;;;;7.22;3.75;;;2.20;99.90;;;;;;5051812;28;20112;-54
2023/01/18 05:26:57;;;;;;;5.97;4.18;;;2.20;99.90;;;;;;5051560;28;20025;-54
2023/01/18 05:29:22;;;;;;;5.97;4.28;;;2.10;99.90;;;;;;5051720;28;20591;-55
2023/01/18 05:31:48;;;;;;;5.70;4.45;;;2.10;99.90;;;;;;5049982;28;20021;-50
2023/01/18 05:34:14;;;;;;;7.03;4.45;;;2.20;99.90;;;;;;5050901;28;20392;-53
2023/01/18 05:36:39;;;;;;;5.47;4.30;;;2.20;99.90;;;;;;5051349;28;20032;-55
2023/01/18 05:39:05;;;;;;;6.88;4.13;;;2.20;99.90;;;;;;5051176;28;20040;-54
2023/01/18 05:41:31;;;;;;;4.45;3.67;;;2.20;99.90;;;;;;5049605;28;20490;-54
2023/01/18 05:43:56;;;;;;;4.18;3.25;;;2.20;99.90;;;;;;5050423;28;20018;-54
2023/01/18 05:46:21;;;;;;;6.13;4.40;;;2.20;99.90;;;;;;5049560;28;20029;-51
2023/01/18 05:48:47;;;;;;;9.57;4.05;;;2.20;99.90;;;;;;5050822;28;20025;-53
2023/01/18 05:51:13;;;;;;;5.35;4.15;;;2.20;99.90;;;;;;5049652;28;20046;-54
2023/01/18 05:53:39;;;;;;;5.90;3.92;;;2.20;99.90;;;;;;5050033;28;20054;-52
2023/01/18 05:56:06;;;;;;;7.88;4.32;;;2.20;99.90;;;;;;5050779;28;20013;-54
2023/01/18 05:58:32;;;;;;;6.47;4.45;;;2.20;99.90;;;;;;5050824;28;20029;-52
2023/01/18 06:00:58;;;;;;;8.38;3.78;;;2.20;99.90;;;;;;5050764;28;20032;-52
2023/01/18 06:03:24;;;;;;;6.10;4.15;;;2.20;99.90;;;;;;5049792;28;20032;-53
2023/01/18 06:05:50;;;;;;;5.97;3.70;;;2.20;99.90;;;;;;5049417;28;20036;-55
2023/01/18 06:08:16;;;;;;;7.57;3.67;;;2.20;99.90;;;;;;5049077;28;20052;-51
2023/01/18 06:10:42;;;;;;;5.93;3.80;;;2.20;99.90;;;;;;5079144;22;20109;-55
2023/01/18 06:13:08;;;;;;;7.07;3.97;;;2.10;99.90;;;;;;5047478;28;20037;-56
2023/01/18 06:15:34;;;;;;;6.22;3.25;;;2.10;99.90;;;;;;5054172;28;20044;-58
2023/01/18 06:17:59;;;;;;;8.73;3.88;;;2.10;99.90;;;;;;5054225;28;20067;-48
2023/01/18 06:20:29;;;;;;;5.85;3.72;;;2.10;99.90;;;;;;5053006;28;20111;-56
2023/01/18 06:22:55;;;;;;;6.55;4.05;;;2.10;99.90;;;;;;5053201;28;20100;-58
2023/01/18 06:25:21;;;;;;;8.73;5.00;;;2.10;99.90;;;;;;5054188;28;20028;-57
2023/01/18 06:27:46;;;;;;;4.60;3.20;;;2.10;99.90;;;;;;5054034;28;20107;-58
2023/01/18 06:30:12;;;;;;;4.15;3.75;;;2.10;99.90;;;;;;5053017;28;20025;-55
2023/01/18 06:32:41;;;;;;;5.22;3.25;;;2.10;99.90;;;;;;5053620;28;20485;-55
2023/01/18 06:35:07;;;;;;;5.97;3.30;;;2.20;99.90;;;;;;5054181;28;20021;-56
2023/01/18 06:37:32;;;;;;;5.50;3.75;;;2.10;99.90;;;;;;5054066;28;20097;-57
2023/01/18 06:39:57;;;;;;;5.30;3.72;;;2.20;99.90;;;;;;5052401;28;20036;-57
2023/01/18 06:42:23;;;;;;;4.00;3.22;;;2.20;99.90;;;;;;5051753;28;20120;-59
2023/01/18 06:44:49;;;;;;;10.10;5.20;;;2.10;99.90;;;;;;5053723;28;20639;-50
2023/01/18 06:47:18;;;;;;;6.55;3.65;;;2.10;99.90;;;;;;5053662;28;20502;-57
2023/01/18 06:49:47;;;;;;;5.50;3.88;;;2.10;99.90;;;;;;5053482;28;20025;-57
2023/01/18 06:52:13;;;;;;;8.43;4.32;;;2.10;99.90;;;;;;5052891;28;20037;-51
2023/01/18 06:54:38;;;;;;;4.32;3.55;;;2.20;99.90;;;;;;5053400;28;20389;-51
2023/01/18 06:57:04;;;;;;;9.75;4.78;;;2.20;99.90;;;;;;5053468;28;20116;-56
2023/01/18 06:59:29;;;;;;;11.25;4.35;;;2.20;99.90;;;;;;5053652;28;20128;-53
2023/01/18 07:01:55;;;;;;;7.30;4.35;;;2.10;99.90;;;;;;5053126;28;20025;-50
2023/01/18 07:04:20;;;;;;;4.13;3.53;;;2.00;99.90;;;;;;5053521;28;20031;-57
2023/01/18 07:06:46;;;;;;;6.15;3.50;;;2.00;99.90;;;;;;5053520;28;20032;-58
2023/01/18 07:09:12;;;;;;;7.53;4.45;;;2.00;99.90;;;;;;5053291;28;20388;-56
2023/01/18 07:11:42;;;;;;;5.20;4.65;;;2.00;99.90;;;;;;5052223;28;20507;-55
2023/01/18 07:14:09;;;;;;;9.43;4.00;;;1.90;99.90;;;;;;5051352;28;20025;-55
2023/01/18 07:16:34;;;;;;;12.60;4.10;;;2.00;99.90;;;;;;5053326;28;20017;-56
2023/01/18 07:19:00;;;;;;;5.10;4.35;;;2.00;99.90;;;;;;5053141;28;20515;-55
2023/01/18 07:21:28;;;;;;;7.20;4.00;;;2.00;99.90;;;;;;5053283;28;20116;-59
2023/01/18 07:23:55;;;;;;;4.88;3.78;;;2.00;99.90;;;;;;5052524;28;20488;-51
2023/01/18 07:26:21;;;;;;;5.60;4.45;;;2.00;99.90;;;;;;5053135;28;20028;-57
2023/01/18 07:28:46;;;;;;;19.08;4.07;;;2.00;99.90;;;;;;5053160;28;20021;-54
2023/01/18 07:31:13;;;;;;;10.85;3.75;;;2.00;99.90;;;;;;5051779;28;20108;-56
2023/01/18 07:33:38;;;;;;;8.80;4.10;;;2.10;99.90;;;;;;5052808;28;20029;-49
2023/01/18 07:36:05;;;;;;;5.97;3.72;;;2.10;99.90;;;;;;5052627;28;20401;-54
2023/01/18 07:38:31;;;;;;;5.43;4.20;;;2.10;99.90;;;;;;5052871;28;20031;-57
2023/01/18 07:41:01;;;;;;;8.35;4.65;;;2.10;99.90;;;;;;5052921;28;20029;-57
2023/01/18 07:43:31;;;;;;;15.15;4.28;;;2.00;99.90;;;;;;5052426;28;20488;-55
2023/01/18 07:45:57;;;;;;;5.28;3.88;;;2.00;99.90;;;;;;5053060;28;20405;-58
2023/01/18 07:48:26;;;;;;;12.57;3.78;;;2.00;99.90;;;;;;5052933;28;20024;-58
2023/01/18 07:50:57;;;;;;;7.18;3.80;;;2.00;99.90;;;;;;5052584;28;20059;-57
2023/01/18 07:53:23;;;;;;;9.65;3.67;;;2.00;99.90;;;;;;5052142;28;20048;-56
2023/01/18 07:55:49;;;;;;;10.77;3.13;;;2.10;99.90;;;;;;5052672;28;20104;-59
2023/01/18 07:58:18;;;;;;;8.93;4.03;;;2.10;99.90;;;;;;5052911;28;20056;-57
2023/01/18 08:00:45;;;;;;;4.32;3.38;;;2.10;99.90;;;;;;5052525;28;20032;-56
2023/01/18 08:03:15;;;;;;;11.48;4.40;;;2.20;99.90;;;;;;5051987;28;20024;-55
2023/01/18 08:05:42;;;;;;;3.75;2.85;;;2.30;99.90;;;;;;5052519;28;20021;-55
2023/01/18 08:08:12;;;;;;;9.75;3.75;;;2.30;99.90;;;;;;5052437;28;20072;-56
2023/01/18 08:10:38;;;;;;;9.32;2.90;;;2.40;99.90;;;;;;5052580;28;20444;-57
2023/01/18 08:13:05;;;;;;;8.95;2.97;;;2.30;99.90;;;;;;5050075;28;20116;-58
2023/01/18 08:15:31;;;;;;;7.05;3.30;;;2.40;99.90;;;;;;5052385;28;20017;-55
2023/01/18 08:18:01;;;;;;;5.25;3.08;;;2.30;99.90;;;;;;5052390;28;20127;-51
2023/01/18 08:20:27;;;;;;;4.53;3.47;;;2.40;99.90;;;;;;5052154;28;20085;-55
2023/01/18 08:22:57;;;;;;;6.53;3.47;;;2.40;99.90;;;;;;5049963;28;20556;-52
2023/01/18 08:25:28;;;;;;;10.07;3.38;;;2.40;99.90;;;;;;5052136;28;20025;-57
2023/01/18 08:27:57;;;;;;;10.65;4.72;;;2.40;99.90;;;;;;5051814;28;20025;-55
2023/01/18 08:30:35;;;;;;;3.75;2.88;;;2.40;99.90;;;;;;5052325;28;20028;-56
2023/01/18 08:33:02;;;;;;;4.20;2.72;;;2.40;99.90;;;;;;5050718;28;20021;-56
2023/01/18 08:35:30;;;;;;;6.38;3.53;;;2.40;99.90;;;;;;5052116;28;20052;-56
2023/01/18 08:37:57;;;;;;;5.70;3.35;;;2.40;99.90;;;;;;5052020;28;20431;-56
2023/01/18 08:40:24;;;;;;;11.13;3.10;;;2.50;99.90;;;;;;5051779;28;20388;-56
2023/01/18 08:42:50;;;;;;;3.67;2.78;;;2.50;99.90;;;;;;5049620;28;20029;-54
2023/01/18 08:45:16;;;;;;;8.85;3.75;;;2.60;99.90;;;;;;5051823;28;20507;-58
2023/01/18 08:47:42;;;;;;;4.05;2.88;;;2.70;99.90;;;;;;5051621;28;20025;-58
2023/01/18 08:50:09;;;;;;;6.43;2.97;;;2.80;99.90;;;;;;5051432;28;20017;-54
2023/01/18 08:52:35;;;;;;;6.95;4.22;;;2.80;99.90;;;;;;5051203;28;20021;-50
2023/01/18 08:55:05;;;;;;;9.35;4.70;;;2.90;99.90;;;;;;5051405;28;20017;-57
2023/01/18 08:57:31;;;;;;;9.32;4.05;;;2.90;99.90;;;;;;5051773;28;20488;-56
2023/01/18 08:59:57;;;;;;;6.53;4.10;;;3.00;99.90;;;;;;5051235;28;20024;-56
2023/01/18 09:02:23;;;;;;;4.22;3.45;;;2.90;99.90;;;;;;5050513;28;20066;-57
2023/01/18 09:04:49;;;;;;;4.85;3.72;;;3.10;99.90;;;;;;5051809;28;20025;-50
2023/01/18 09:07:15;;;;;;;4.88;3.80;;;3.10;99.90;;;;;;5051628;28;20025;-56
2023/01/18 09:09:41;;;;;;;6.82;3.45;;;3.10;99.90;;;;;;5051281;28;20063;-55
2023/01/18 09:12:07;;;;;;;8.48;3.63;;;3.20;99.90;;;;;;5042015;28;20053;-51
2023/01/18 09:14:32;;;;;;;6.78;3.28;;;3.30;99.90;;;;;;5020997;28;20445;-54
2023/01/18 09:16:58;;;;;;;5.95;3.00;;;3.30;99.90;;;;;;5021750;28;20035;-51
2023/01/18 09:19:23;;;;;;;5.22;2.92;;;3.30;99.90;;;;;;5011900;28;20022;-54
2023/01/18 09:21:50;;;;;;;14.98;3.30;;;3.40;99.90;;;;;;5027215;28;20175;-58
2023/01/18 09:24:18;;;;;;;5.78;3.42;;;3.40;99.90;;;;;;5031744;28;20033;-52
2023/01/18 09:26:45;;;;;;;5.13;3.28;;;3.50;99.90;;;;;;5028022;28;20176;-57
2023/01/18 09:29:10;;;;;;;5.28;2.47;;;3.50;99.90;;;;;;5026179;28;20064;-57
2023/01/18 09:31:36;;;;;;;13.57;4.28;;;3.50;99.90;;;;;;5031306;28;20103;-57
2023/01/18 09:34:02;;;;;;;3.92;2.60;;;3.50;99.90;;;;;;5029383;28;20505;-52
2023/01/18 09:36:28;;;;;;;6.35;3.78;;;3.40;99.90;;;;;;5028014;28;20049;-57
2023/01/18 09:38:54;;;;;;;5.38;3.28;;;3.50;99.90;;;;;;5021421;28;20084;-57
2023/01/18 09:41:35;;;;;;;5.07;2.65;;;3.50;99.90;;;;;;5033014;28;20612;-53
2023/01/18 09:44:23;;;;;;;9.70;3.10;;;3.60;99.90;;;;;;5011875;28;20109;-54
2023/01/18 09:46:53;;;;;;;8.48;3.45;;;3.60;99.90;;;;;;5023451;28;20097;-50
2023/01/18 09:49:30;;;;;;;6.60;2.97;;;3.70;99.90;;;;;;5017549;28;20033;-58
2023/01/18 09:52:23;;;;;;;7.55;2.90;;;3.80;99.90;;;;;;5027089;28;20021;-55
2023/01/18 09:55:21;;;;;;;5.03;3.22;;;3.90;99.90;;;;;;5006042;28;20041;-58
2023/01/18 09:58:24;;;;;;;13.90;3.22;;;4.00;99.90;;;;;;5015407;28;20022;-56
2023/01/18 10:01:05;;;;;;;4.10;3.08;;;4.20;99.90;;;;;;5015280;28;20022;-58
2023/01/18 10:03:42;;;;;;;8.80;3.13;;;4.40;99.90;;;;;;5014853;28;20029;-55
2023/01/18 10:06:14;;;;;;;7.55;3.33;;;4.50;99.90;;;;;;5015467;28;20029;-60
2023/01/18 10:08:59;;;;;;;5.00;3.10;;;4.70;99.90;;;;;;5015189;28;20032;-56
2023/01/18 10:12:05;;;;;;;7.50;2.80;;;4.70;99.90;;;;;;5015964;28;20029;-57
2023/01/18 10:14:41;;;;;;;6.10;3.33;;;4.80;99.90;;;;;;5003179;28;20132;-55
2023/01/18 10:17:16;;;;;;;7.22;3.45;;;5.10;99.90;;;;;;5015191;28;20028;-58
2023/01/18 10:19:42;;;;;;;6.97;4.77;;;5.30;99.90;;;;;;5013518;28;20051;-59
2023/01/18 10:22:26;;;;;;;6.20;3.42;;;5.40;99.90;;;;;;5016005;28;20532;-58
2023/01/18 10:25:26;;;;;;;6.20;3.17;;;5.40;99.90;;;;;;5023516;28;20018;-54
2023/01/18 10:27:57;;;;;;;7.40;3.17;;;5.60;99.90;;;;;;5032274;28;20041;-60
2023/01/18 10:30:33;;;;;;;9.93;3.40;;;5.80;99.90;;;;;;5015136;28;20490;-57
2023/01/18 10:33:02;;;;;;;8.73;2.95;;;6.00;99.90;;;;;;5012891;28;20022;-56
2023/01/18 10:35:33;;;;;;;10.10;2.75;;;6.10;99.90;;;;;;5014856;28;20100;-55
2023/01/18 10:38:10;;;;;;;6.97;2.75;;;6.10;99.90;;;;;;5013263;28;20057;-54
2023/01/18 10:40:38;;;;;;;4.47;2.20;;;6.20;99.90;;;;;;5019272;28;20057;-55
2023/01/18 10:43:09;;;;;;;5.40;2.25;;;6.40;99.70;;;;;;5033753;28;20148;-54
2023/01/18 10:45:35;;;;;;;3.97;2.38;;;6.50;99.50;;;;;;5034292;28;20029;-56
2023/01/18 10:48:19;;;;;;;2.95;2.50;;;6.50;99.40;;;;;;5034193;28;20394;-52
2023/01/18 10:50:47;;;;;;;4.75;2.60;;;6.70;99.10;;;;;;5033247;28;20022;-56
2023/01/18 10:53:34;;;;;;;8.40;3.78;;;6.90;98.90;;;;;;5033162;28;20083;-54
2023/01/18 10:56:16;;;;;;;8.25;3.42;;;7.10;99.30;;;;;;5033553;28;20496;-57
2023/01/18 10:58:50;;;;;;;8.65;3.20;;;7.10;99.80;;;;;;5034049;28;20025;-57
2023/01/18 11:01:23;;;;;;;4.88;3.10;;;7.10;99.80;;;;;;5033736;28;20021;-56
2023/01/18 11:03:55;;;;;;;6.38;3.75;;;7.10;99.10;;;;;;5033074;28;20025;-57
2023/01/18 11:06:23;;;;;;;6.28;3.22;;;7.10;99.30;;;;;;5034134;28;20021;-57
2023/01/18 11:08:49;;;;;;;4.60;2.85;;;7.10;99.50;;;;;;5033703;28;20401;-58
2023/01/18 11:14:29;;;;;;;8.05;3.13;;;6.90;98.30;;;;;;5013807;28;20040;-61
2023/01/18 11:17:10;;;;;;;6.85;3.67;;;6.80;98.10;;;;;;5016338;28;20056;-61
2023/01/18 11:19:36;;;;;;;7.65;3.15;;;6.60;98.40;;;;;;5033621;28;20064;-59
2023/01/18 11:22:02;;;;;;;7.72;3.75;;;6.40;97.80;;;;;;5032677;28;20030;-59
2023/01/18 11:24:30;;;;;;;5.85;2.70;;;6.20;98.40;;;;;;5033356;28;20036;-60
2023/01/18 11:27:01;;;;;;;5.07;2.75;;;6.00;98.80;;;;;;5033066;28;20048;-57
2023/01/18 11:29:31;;;;;;;8.88;3.25;;;5.70;98.80;;;;;;5031941;28;20034;-56
2023/01/18 11:32:05;;;;;;;7.93;3.03;;;5.50;98.50;;;;;;5028582;28;20133;-57
2023/01/18 11:34:40;;;;;;;6.75;3.17;;;5.50;99.10;;;;;;5021073;28;20513;-46
2023/01/18 11:37:25;;;;;;;5.15;3.00;;;5.50;99.30;;;;;;5011976;28;20030;-48
2023/01/18 11:39:50;;;;;;;12.88;6.28;;;5.10;99.80;;;;;;5011491;28;20030;-55
2023/01/18 11:42:21;;;;;;;19.38;9.30;;;5.20;99.90;;;;;;5011538;28;20036;-52
2023/01/18 11:45:00;;;;;;;9.93;4.28;;;5.10;99.30;;;;;;5013365;28;20109;-50
2023/01/18 11:47:36;;;;;;;4.28;3.40;;;5.20;99.90;;;;;;5012570;28;20113;-50
2023/01/18 11:50:27;;;;;;;7.10;3.75;;;5.10;99.70;;;;;;5012923;28;20018;-44
2023/01/18 11:53:23;;;;;;;8.98;3.47;;;5.20;99.80;;;;;;5012406;28;20530;-50
2023/01/18 11:56:03;;;;;;;7.63;4.30;;;5.20;99.90;;;;;;5013012;28;20626;-50
2023/01/18 11:58:29;;;;;;;7.47;3.90;;;5.20;99.80;;;;;;5012994;28;20034;-52
2023/01/18 12:01:20;;;;;;;10.00;4.00;;;5.20;99.90;;;;;;5012862;28;20022;-52
2023/01/18 12:04:10;;;;;;;11.30;4.68;;;5.20;99.90;;;;;;5012272;28;20029;-51
2023/01/18 12:06:57;;;;;;;12.85;4.60;;;5.20;99.90;;;;;;5012214;28;20111;-49
2023/01/18 12:09:31;;;;;;;8.15;5.22;;;5.30;99.90;;;;;;5012649;28;20048;-49
2023/01/18 12:12:21;;;;;;;12.75;4.95;;;5.30;99.90;;;;;;5011939;28;20026;-49
2023/01/18 12:15:13;;;;;;;11.60;5.43;;;5.20;99.90;;;;;;5012934;28;20029;-46
2023/01/18 12:17:56;;;;;;;16.38;5.20;;;5.30;99.90;;;;;;5011436;28;20124;-48
2023/01/18 12:20:30;;;;;;;11.23;5.78;;;5.30;99.90;;;;;;5011342;28;20037;-52
2023/01/18 12:23:04;;;;;;;11.43;5.88;;;5.10;99.90;;;;;;5011852;28;20030;-51
2023/01/18 12:25:41;;;;;;;13.40;5.82;;;5.10;99.90;;;;;;5012490;28;20038;-49
2023/01/18 12:28:41;;;;;;;11.85;5.72;;;5.10;99.90;;;;;;5012497;28;20050;-49
2023/01/18 12:31:21;;;;;;;9.10;5.05;;;5.10;99.90;;;;;;5012576;28;20437;-54
2023/01/18 12:34:01;;;;;;;12.57;5.25;;;5.10;99.90;;;;;;5011616;28;20018;-53
2023/01/18 12:36:47;;;;;;;15.55;7.57;;;5.10;99.90;;;;;;5012319;28;20136;-47
2023/01/18 12:39:27;;;;;;;;;;;5.10;99.90;;;;;;5012865;28;20104;-51
2023/01/18 12:41:59;;;;;;;13.50;4.70;;;5.20;99.90;;;;;;5011984;28;19905;-50
2023/01/18 12:44:27;;;;;;;10.10;5.15;;;5.20;99.90;;;;;;5030167;28;20037;-51
2023/01/18 12:47:09;;;;;;;8.57;5.20;;;5.20;99.90;;;;;;5030331;28;20113;-46
2023/01/18 12:49:41;;;;;;;12.60;5.70;;;5.20;99.90;;;;;;5033380;28;20392;-49
2023/01/18 12:52:09;;;;;;;12.07;5.53;;;5.30;99.90;;;;;;5032611;28;20292;-49
2023/01/18 12:54:40;;;;;;;6.43;4.88;;;5.30;99.90;;;;;;5033050;28;20465;-48
2023/01/18 12:57:07;;;;;;;8.90;5.38;;;5.30;99.90;;;;;;5031899;28;20503;-49
2023/01/18 13:00:04;;;;;;;10.88;5.68;;;5.20;99.90;;;;;;5032608;28;20112;-50
2023/01/18 13:02:32;;;;;;;9.20;5.90;;;5.10;99.90;;;;;;5022560;28;20069;-56
2023/01/18 13:05:09;;;;;;;18.98;6.35;;;5.00;99.90;;;;;;5032436;28;20032;-49
2023/01/18 13:07:39;;;;;;;16.25;6.13;;;5.00;99.90;;;;;;5032800;28;20028;-49
2023/01/18 13:10:12;;;;;;;8.68;5.45;;;5.00;99.90;;;;;;5033128;28;20120;-48
2023/01/18 13:12:39;;;;;;;10.98;5.38;;;5.10;99.90;;;;;;5031327;28;20037;-50
2023/01/18 13:15:43;;;;;;;13.20;5.82;;;5.00;99.90;;;;;;5032967;28;20029;-53
2023/01/18 13:18:14;;;;;;;9.85;5.45;;;4.90;99.90;;;;;;5072496;22;20044;-51
2023/01/18 13:21:02;;;;;;;10.07;5.45;;;4.90;99.90;;;;;;5071773;28;20095;-55
2023/01/18 13:23:36;;;;;;;16.48;5.65;;;4.90;99.90;;;;;;5069322;28;20025;-57
2023/01/18 13:26:15;;;;;;;15.05;6.18;;;4.90;99.90;;;;;;5070126;28;20036;-52
2023/01/18 13:28:42;;;;;;;16.25;6.43;;;4.90;99.90;;;;;;5039263;28;20087;-54
2023/01/18 13:31:07;;;;;;;10.20;6.00;;;4.90;99.90;;;;;;5029769;28;20025;-54
2023/01/18 13:33:36;;;;;;;14.30;7.63;;;4.90;99.90;;;;;;5030424;28;20363;-53
2023/01/18 13:36:16;;;;;;;12.35;6.03;;;4.90;99.90;;;;;;5030315;28;20022;-55
2023/01/18 13:39:02;;;;;;;9.52;6.13;;;5.00;99.90;;;;;;5030127;28;20052;-55
2023/01/18 13:41:29;;;;;;;11.63;6.13;;;4.90;99.90;;;;;;5029804;28;20408;-56
2023/01/18 13:44:02;;;;;;;15.77;6.63;;;4.90;99.90;;;;;;5030594;28;20068;-55
2023/01/18 13:46:29;;;;;;;10.52;6.15;;;4.80;99.90;;;;;;5029160;28;20037;-56
2023/01/18 13:49:01;;;;;;;11.73;6.32;;;4.80;99.90;;;;;;5036146;28;20425;-55
2023/01/18 13:51:50;;;;;;;12.57;5.82;;;4.80;99.90;;;;;;5037018;28;20059;-54